sensor_id;sensor_type;location;lat;lon;timestamp;pressure;altitude;pressure_sealevel;temperature;humidity
20628;BME280;10473;42.734;24.258;2023-02-11T00:01:42;93250.72;;;-5.58;56.87
20628;BME280;10473;42.734;24.258;2023-02-11T00:04:09;93264.03;;;-5.50;56.33
20628;BME280;10473;42.734;24.258;2023-02-11T00:06:38;93196.00;;;-5.77;56.39
20628;BME280;10473;42.734;24.258;2023-02-11T00:09:06;93250.50;;;-5.40;56.41
20628;BME280;10473;42.734;24.258;2023-02-11T00:11:34;93255.91;;;-5.42;57.48
20628;BME280;10473;42.734;24.258;2023-02-11T00:14:03;93256.13;;;-5.43;57.44
20628;BME280;10473;42.734;24.258;2023-02-11T00:16:33;93243.88;;;-5.53;57.01
20628;BME280;10473;42.734;24.258;2023-02-11T00:19:03;93253.16;;;-5.52;57.23
20628;BME280;10473;42.734;24.258;2023-02-11T00:21:32;93248.78;;;-5.68;57.21
20628;BME280;10473;42.734;24.258;2023-02-11T00:24:01;93262.63;;;-5.74;56.67
20628;BME280;10473;42.734;24.258;2023-02-11T00:26:30;93253.84;;;-6.06;58.04
20628;BME280;10473;42.734;24.258;2023-02-11T00:28:59;93261.03;;;-6.08;59.28
20628;BME280;10473;42.734;24.258;2023-02-11T00:31:27;93246.28;;;-5.96;58.35
20628;BME280;10473;42.734;24.258;2023-02-11T00:33:55;93262.03;;;-6.37;59.55
20628;BME280;10473;42.734;24.258;2023-02-11T00:36:26;93252.53;;;-6.20;59.12
20628;BME280;10473;42.734;24.258;2023-02-11T00:38:56;93254.09;;;-6.19;59.30
20628;BME280;10473;42.734;24.258;2023-02-11T00:41:24;93248.94;;;-6.19;58.83
20628;BME280;10473;42.734;24.258;2023-02-11T00:43:52;93251.00;;;-6.21;58.40
20628;BME280;10473;42.734;24.258;2023-02-11T00:46:20;93242.78;;;-6.46;59.46
20628;BME280;10473;42.734;24.258;2023-02-11T00:48:48;93246.06;;;-6.22;59.37
20628;BME280;10473;42.734;24.258;2023-02-11T00:51:17;93242.72;;;-6.23;59.13
20628;BME280;10473;42.734;24.258;2023-02-11T00:53:46;93234.38;;;-6.13;59.15
20628;BME280;10473;42.734;24.258;2023-02-11T00:56:13;93240.84;;;-6.11;59.06
20628;BME280;10473;42.734;24.258;2023-02-11T00:58:41;93236.72;;;-6.12;59.54
20628;BME280;10473;42.734;24.258;2023-02-11T01:01:09;93236.81;;;-6.07;59.47
20628;BME280;10473;42.734;24.258;2023-02-11T01:03:37;93223.09;;;-6.24;59.43
20628;BME280;10473;42.734;24.258;2023-02-11T01:06:07;93234.09;;;-6.28;60.19
20628;BME280;10473;42.734;24.258;2023-02-11T01:08:37;93234.22;;;-6.35;59.74
20628;BME280;10473;42.734;24.258;2023-02-11T01:11:12;93234.88;;;-6.28;60.00
20628;BME280;10473;42.734;24.258;2023-02-11T01:13:40;93220.06;;;-6.21;59.52
20628;BME280;10473;42.734;24.258;2023-02-11T01:16:08;93217.94;;;-6.24;59.80
20628;BME280;10473;42.734;24.258;2023-02-11T01:18:37;93223.16;;;-6.19;59.65
20628;BME280;10473;42.734;24.258;2023-02-11T01:21:04;93220.66;;;-6.30;59.52
20628;BME280;10473;42.734;24.258;2023-02-11T01:23:32;93211.78;;;-6.23;59.48
20628;BME280;10473;42.734;24.258;2023-02-11T01:26:00;93202.06;;;-6.32;59.69
20628;BME280;10473;42.734;24.258;2023-02-11T01:28:29;93211.13;;;-6.30;59.45
20628;BME280;10473;42.734;24.258;2023-02-11T01:31:00;93209.88;;;-6.27;59.93
20628;BME280;10473;42.734;24.258;2023-02-11T01:33:28;93209.03;;;-6.33;59.78
20628;BME280;10473;42.734;24.258;2023-02-11T01:35:59;93211.53;;;-6.77;60.83
20628;BME280;10473;42.734;24.258;2023-02-11T01:38:28;93203.19;;;-6.68;61.17
20628;BME280;10473;42.734;24.258;2023-02-11T01:40:57;93207.91;;;-6.65;60.96
20628;BME280;10473;42.734;24.258;2023-02-11T01:43:27;93205.31;;;-6.65;61.55
20628;BME280;10473;42.734;24.258;2023-02-11T01:46:03;93198.31;;;-6.81;61.74
20628;BME280;10473;42.734;24.258;2023-02-11T01:48:34;93193.91;;;-6.69;61.18
20628;BME280;10473;42.734;24.258;2023-02-11T01:51:06;93194.50;;;-6.78;60.80
20628;BME280;10473;42.734;24.258;2023-02-11T01:53:36;93200.97;;;-6.64;61.10
20628;BME280;10473;42.734;24.258;2023-02-11T01:56:24;93196.78;;;-6.82;61.27
20628;BME280;10473;42.734;24.258;2023-02-11T01:59:16;93195.59;;;-7.02;61.59
20628;BME280;10473;42.734;24.258;2023-02-11T02:01:49;93192.69;;;-7.17;62.29
20628;BME280;10473;42.734;24.258;2023-02-11T02:04:20;93199.38;;;-6.93;61.63
20628;BME280;10473;42.734;24.258;2023-02-11T02:06:55;93198.00;;;-6.84;61.11
20628;BME280;10473;42.734;24.258;2023-02-11T02:09:26;93197.03;;;-6.95;62.04
20628;BME280;10473;42.734;24.258;2023-02-11T02:11:56;93183.44;;;-6.90;61.15
20628;BME280;10473;42.734;24.258;2023-02-11T02:14:24;93195.81;;;-7.04;61.52
20628;BME280;10473;42.734;24.258;2023-02-11T02:16:54;93200.84;;;-7.09;61.05
20628;BME280;10473;42.734;24.258;2023-02-11T02:22:40;93199.06;;;-6.97;60.38
20628;BME280;10473;42.734;24.258;2023-02-11T02:25:35;93187.94;;;-6.86;60.05
20628;BME280;10473;42.734;24.258;2023-02-11T02:28:35;93186.97;;;-7.08;60.25
20628;BME280;10473;42.734;24.258;2023-02-11T02:31:25;93184.69;;;-6.93;59.28
20628;BME280;10473;42.734;24.258;2023-02-11T02:34:02;93179.72;;;-6.83;58.77
20628;BME280;10473;42.734;24.258;2023-02-11T02:36:36;93187.22;;;-6.81;58.95
20628;BME280;10473;42.734;24.258;2023-02-11T02:39:11;93193.63;;;-6.84;59.00
20628;BME280;10473;42.734;24.258;2023-02-11T02:41:42;93194.28;;;-6.77;59.38
20628;BME280;10473;42.734;24.258;2023-02-11T02:44:11;93183.59;;;-6.97;59.71
20628;BME280;10473;42.734;24.258;2023-02-11T02:46:39;93187.09;;;-6.75;59.65
20628;BME280;10473;42.734;24.258;2023-02-11T02:49:11;93182.41;;;-6.78;60.20
20628;BME280;10473;42.734;24.258;2023-02-11T02:51:51;93176.41;;;-6.95;60.15
20628;BME280;10473;42.734;24.258;2023-02-11T02:54:55;93199.44;;;-6.77;59.27
20628;BME280;10473;42.734;24.258;2023-02-11T02:57:33;93194.19;;;-6.82;59.39
20628;BME280;10473;42.734;24.258;2023-02-11T03:00:16;93203.09;;;-7.01;59.81
20628;BME280;10473;42.734;24.258;2023-02-11T03:02:54;93205.84;;;-6.91;59.29
20628;BME280;10473;42.734;24.258;2023-02-11T03:05:30;93205.34;;;-7.16;60.13
20628;BME280;10473;42.734;24.258;2023-02-11T03:08:04;93209.38;;;-7.08;59.15
20628;BME280;10473;42.734;24.258;2023-02-11T03:10:37;93211.84;;;-7.25;59.57
20628;BME280;10473;42.734;24.258;2023-02-11T03:13:07;93206.91;;;-7.15;60.24
20628;BME280;10473;42.734;24.258;2023-02-11T03:15:38;93210.03;;;-7.13;59.46
20628;BME280;10473;42.734;24.258;2023-02-11T03:18:09;93200.75;;;-7.14;59.75
20628;BME280;10473;42.734;24.258;2023-02-11T03:20:41;93196.66;;;-7.72;60.50
20628;BME280;10473;42.734;24.258;2023-02-11T03:23:13;93196.41;;;-7.59;60.69
20628;BME280;10473;42.734;24.258;2023-02-11T03:25:52;93179.09;;;-7.52;60.59
20628;BME280;10473;42.734;24.258;2023-02-11T03:28:28;93201.13;;;-7.45;60.24
20628;BME280;10473;42.734;24.258;2023-02-11T03:31:07;93202.56;;;-7.60;61.07
20628;BME280;10473;42.734;24.258;2023-02-11T03:33:39;93193.06;;;-7.60;60.51
20628;BME280;10473;42.734;24.258;2023-02-11T03:36:12;93221.00;;;-7.52;60.89
20628;BME280;10473;42.734;24.258;2023-02-11T03:38:46;93208.59;;;-7.89;61.78
20628;BME280;10473;42.734;24.258;2023-02-11T03:41:16;93178.63;;;-8.30;62.49
20628;BME280;10473;42.734;24.258;2023-02-11T03:43:49;93208.47;;;-7.83;62.33
20628;BME280;10473;42.734;24.258;2023-02-11T03:46:20;93203.78;;;-7.74;61.79
20628;BME280;10473;42.734;24.258;2023-02-11T03:48:52;93201.56;;;-7.71;61.76
20628;BME280;10473;42.734;24.258;2023-02-11T03:51:25;93204.03;;;-7.53;60.65
20628;BME280;10473;42.734;24.258;2023-02-11T03:53:55;93206.72;;;-7.82;61.54
20628;BME280;10473;42.734;24.258;2023-02-11T03:56:27;93207.91;;;-7.73;61.12
20628;BME280;10473;42.734;24.258;2023-02-11T03:58:56;93208.03;;;-7.57;61.17
20628;BME280;10473;42.734;24.258;2023-02-11T04:01:24;93211.28;;;-7.73;60.83
20628;BME280;10473;42.734;24.258;2023-02-11T04:03:52;93214.19;;;-7.69;61.75
20628;BME280;10473;42.734;24.258;2023-02-11T04:06:19;93213.75;;;-7.66;61.05
20628;BME280;10473;42.734;24.258;2023-02-11T04:08:49;93205.00;;;-7.77;61.47
20628;BME280;10473;42.734;24.258;2023-02-11T04:11:16;93211.00;;;-8.06;61.90
20628;BME280;10473;42.734;24.258;2023-02-11T04:13:44;93217.44;;;-7.85;61.40
20628;BME280;10473;42.734;24.258;2023-02-11T04:16:12;93209.38;;;-7.89;60.90
20628;BME280;10473;42.734;24.258;2023-02-11T04:18:39;93213.38;;;-7.93;61.00
20628;BME280;10473;42.734;24.258;2023-02-11T04:21:07;93212.03;;;-8.07;61.50
20628;BME280;10473;42.734;24.258;2023-02-11T04:23:35;93209.81;;;-7.80;60.49
20628;BME280;10473;42.734;24.258;2023-02-11T04:26:05;93210.59;;;-7.91;60.55
20628;BME280;10473;42.734;24.258;2023-02-11T04:28:33;93216.63;;;-7.97;60.61
20628;BME280;10473;42.734;24.258;2023-02-11T04:31:01;93216.63;;;-7.97;60.90
20628;BME280;10473;42.734;24.258;2023-02-11T04:33:29;93223.19;;;-8.13;60.35
20628;BME280;10473;42.734;24.258;2023-02-11T04:35:56;93209.13;;;-8.22;61.19
20628;BME280;10473;42.734;24.258;2023-02-11T04:38:25;93205.75;;;-8.11;60.08
20628;BME280;10473;42.734;24.258;2023-02-11T04:40:52;93199.50;;;-8.15;60.46
20628;BME280;10473;42.734;24.258;2023-02-11T04:43:21;93202.19;;;-8.10;60.87
20628;BME280;10473;42.734;24.258;2023-02-11T04:45:49;93199.28;;;-8.25;60.95
20628;BME280;10473;42.734;24.258;2023-02-11T04:48:17;93183.59;;;-8.35;61.65
20628;BME280;10473;42.734;24.258;2023-02-11T04:50:45;93195.59;;;-8.17;60.97
20628;BME280;10473;42.734;24.258;2023-02-11T04:53:12;93195.13;;;-8.26;60.87
20628;BME280;10473;42.734;24.258;2023-02-11T04:55:40;93180.84;;;-8.22;61.07
20628;BME280;10473;42.734;24.258;2023-02-11T04:58:08;93194.13;;;-8.13;60.95
20628;BME280;10473;42.734;24.258;2023-02-11T05:00:37;93192.44;;;-8.19;60.68
20628;BME280;10473;42.734;24.258;2023-02-11T05:03:05;93188.34;;;-8.09;60.76
20628;BME280;10473;42.734;24.258;2023-02-11T05:05:32;93187.63;;;-8.39;61.21
20628;BME280;10473;42.734;24.258;2023-02-11T05:08:00;93185.88;;;-8.15;60.99
20628;BME280;10473;42.734;24.258;2023-02-11T05:10:28;93196.94;;;-8.15;60.39
20628;BME280;10473;42.734;24.258;2023-02-11T05:12:55;93183.09;;;-8.25;60.46
20628;BME280;10473;42.734;24.258;2023-02-11T05:15:23;93203.75;;;-8.09;59.91
20628;BME280;10473;42.734;24.258;2023-02-11T05:17:52;93169.00;;;-8.23;59.64
20628;BME280;10473;42.734;24.258;2023-02-11T05:20:20;93189.34;;;-7.98;59.93
20628;BME280;10473;42.734;24.258;2023-02-11T05:22:47;93188.56;;;-7.99;58.75
20628;BME280;10473;42.734;24.258;2023-02-11T05:25:15;93185.78;;;-8.20;59.65
20628;BME280;10473;42.734;24.258;2023-02-11T05:27:43;93182.16;;;-8.19;59.74
20628;BME280;10473;42.734;24.258;2023-02-11T05:30:11;93175.59;;;-8.27;60.27
20628;BME280;10473;42.734;24.258;2023-02-11T05:32:38;93184.31;;;-8.16;60.07
20628;BME280;10473;42.734;24.258;2023-02-11T05:35:08;93154.25;;;-8.16;59.37
20628;BME280;10473;42.734;24.258;2023-02-11T05:37:35;93181.19;;;-8.07;58.92
20628;BME280;10473;42.734;24.258;2023-02-11T05:40:04;93174.72;;;-7.98;59.07
20628;BME280;10473;42.734;24.258;2023-02-11T05:42:32;93183.44;;;-7.99;58.99
20628;BME280;10473;42.734;24.258;2023-02-11T05:45:00;93183.66;;;-7.89;59.01
20628;BME280;10473;42.734;24.258;2023-02-11T05:47:30;93156.16;;;-7.88;58.33
20628;BME280;10473;42.734;24.258;2023-02-11T05:49:58;93197.66;;;-7.39;58.47
20628;BME280;10473;42.734;24.258;2023-02-11T05:52:28;93175.22;;;-7.15;57.63
20628;BME280;10473;42.734;24.258;2023-02-11T05:55:04;93193.75;;;-6.90;58.20
20628;BME280;10473;42.734;24.258;2023-02-11T05:57:32;93185.34;;;-6.86;57.54
20628;BME280;10473;42.734;24.258;2023-02-11T06:00:02;93184.53;;;-6.47;57.41
20628;BME280;10473;42.734;24.258;2023-02-11T06:02:43;93199.13;;;-5.91;56.80
20628;BME280;10473;42.734;24.258;2023-02-11T06:05:28;93178.28;;;-5.90;55.86
20628;BME280;10473;42.734;24.258;2023-02-11T06:07:57;93210.19;;;-5.25;55.85
20628;BME280;10473;42.734;24.258;2023-02-11T06:10:26;93171.69;;;-5.10;54.58
20628;BME280;10473;42.734;24.258;2023-02-11T06:12:56;93207.84;;;-4.45;53.95
20628;BME280;10473;42.734;24.258;2023-02-11T06:15:24;93157.50;;;-4.38;52.71
20628;BME280;10473;42.734;24.258;2023-02-11T06:17:53;93194.81;;;-3.76;52.07
20628;BME280;10473;42.734;24.258;2023-02-11T06:20:22;93206.88;;;-3.55;51.08
20628;BME280;10473;42.734;24.258;2023-02-11T06:22:50;93203.31;;;-3.12;50.18
20628;BME280;10473;42.734;24.258;2023-02-11T06:25:19;93178.00;;;-2.95;49.78
20628;BME280;10473;42.734;24.258;2023-02-11T06:27:47;93212.50;;;-2.33;48.39
20628;BME280;10473;42.734;24.258;2023-02-11T06:30:15;93201.44;;;-1.99;48.26
20628;BME280;10473;42.734;24.258;2023-02-11T06:32:43;93215.00;;;-1.67;48.56
20628;BME280;10473;42.734;24.258;2023-02-11T06:35:13;93199.41;;;-1.37;46.80
20628;BME280;10473;42.734;24.258;2023-02-11T06:37:41;93211.09;;;-1.19;46.97
20628;BME280;10473;42.734;24.258;2023-02-11T06:40:10;93220.94;;;-0.91;45.18
20628;BME280;10473;42.734;24.258;2023-02-11T06:42:39;93181.69;;;-0.95;45.61
20628;BME280;10473;42.734;24.258;2023-02-11T06:45:08;93216.41;;;-0.41;44.39
20628;BME280;10473;42.734;24.258;2023-02-11T06:47:37;93215.84;;;-0.38;43.48
20628;BME280;10473;42.734;24.258;2023-02-11T06:50:07;93206.44;;;-0.24;41.68
20628;BME280;10473;42.734;24.258;2023-02-11T06:52:36;93210.09;;;-0.25;43.40
20628;BME280;10473;42.734;24.258;2023-02-11T06:55:07;93190.78;;;-0.19;41.91
20628;BME280;10473;42.734;24.258;2023-02-11T06:57:46;93173.00;;;-0.02;42.45
20628;BME280;10473;42.734;24.258;2023-02-11T07:00:14;93209.09;;;0.58;41.61
20628;BME280;10473;42.734;24.258;2023-02-11T07:02:48;93187.16;;;0.93;40.87
20628;BME280;10473;42.734;24.258;2023-02-11T07:05:23;93176.13;;;0.73;40.21
20628;BME280;10473;42.734;24.258;2023-02-11T07:07:51;93195.81;;;1.46;38.39
20628;BME280;10473;42.734;24.258;2023-02-11T07:10:18;93197.69;;;1.63;37.86
20628;BME280;10473;42.734;24.258;2023-02-11T07:12:48;93162.94;;;1.87;37.97
20628;BME280;10473;42.734;24.258;2023-02-11T07:15:15;93209.16;;;2.65;36.74
20628;BME280;10473;42.734;24.258;2023-02-11T07:17:43;93206.19;;;2.53;36.49
20628;BME280;10473;42.734;24.258;2023-02-11T07:20:11;93180.59;;;2.69;35.74
20628;BME280;10473;42.734;24.258;2023-02-11T07:23:03;93204.97;;;3.60;34.78
20628;BME280;10473;42.734;24.258;2023-02-11T07:25:31;93202.41;;;3.96;33.50
20628;BME280;10473;42.734;24.258;2023-02-11T07:28:12;93201.44;;;4.19;33.57
20628;BME280;10473;42.734;24.258;2023-02-11T07:33:36;93199.28;;;4.92;33.55
20628;BME280;10473;42.734;24.258;2023-02-11T07:36:11;93198.06;;;5.42;31.92
20628;BME280;10473;42.734;24.258;2023-02-11T07:38:47;93196.00;;;5.61;30.20
20628;BME280;10473;42.734;24.258;2023-02-11T07:41:17;93191.31;;;6.19;29.58
20628;BME280;10473;42.734;24.258;2023-02-11T07:43:53;93177.78;;;6.03;29.17
20628;BME280;10473;42.734;24.258;2023-02-11T07:46:26;93199.06;;;6.24;30.17
20628;BME280;10473;42.734;24.258;2023-02-11T07:48:54;93193.66;;;6.37;30.34
20628;BME280;10473;42.734;24.258;2023-02-11T07:51:23;93189.03;;;6.51;28.90
20628;BME280;10473;42.734;24.258;2023-02-11T07:53:52;93185.41;;;6.22;29.11
20628;BME280;10473;42.734;24.258;2023-02-11T07:56:24;93175.41;;;6.66;28.74
20628;BME280;10473;42.734;24.258;2023-02-11T07:58:53;93188.41;;;7.14;28.41
20628;BME280;10473;42.734;24.258;2023-02-11T08:01:23;93190.34;;;7.51;27.64
20628;BME280;10473;42.734;24.258;2023-02-11T08:04:05;93194.63;;;7.81;27.43
20628;BME280;10473;42.734;24.258;2023-02-11T08:06:34;93190.34;;;8.05;26.90
20628;BME280;10473;42.734;24.258;2023-02-11T08:09:14;93179.25;;;7.20;27.46
20628;BME280;10473;42.734;24.258;2023-02-11T08:11:45;93187.63;;;7.22;25.88
20628;BME280;10473;42.734;24.258;2023-02-11T08:14:17;93186.34;;;7.45;26.31
20628;BME280;10473;42.734;24.258;2023-02-11T08:16:45;93181.91;;;8.12;25.18
20628;BME280;10473;42.734;24.258;2023-02-11T08:19:16;93179.72;;;8.14;25.92
20628;BME280;10473;42.734;24.258;2023-02-11T08:21:56;93163.09;;;8.22;25.64
20628;BME280;10473;42.734;24.258;2023-02-11T08:24:25;93179.00;;;8.05;25.80
20628;BME280;10473;42.734;24.258;2023-02-11T08:26:56;93150.78;;;7.97;25.57
20628;BME280;10473;42.734;24.258;2023-02-11T08:29:29;93160.50;;;8.13;25.99
20628;BME280;10473;42.734;24.258;2023-02-11T08:31:57;93146.00;;;8.28;25.18
20628;BME280;10473;42.734;24.258;2023-02-11T08:34:24;93174.28;;;8.48;25.37
20628;BME280;10473;42.734;24.258;2023-02-11T08:46:13;93167.81;;;10.56;23.96
20628;BME280;10473;42.734;24.258;2023-02-11T08:48:41;93165.03;;;10.76;22.80
20628;BME280;10473;42.734;24.258;2023-02-11T08:51:12;93173.16;;;10.95;22.48
20628;BME280;10473;42.734;24.258;2023-02-11T08:53:41;93177.44;;;11.39;21.73
20628;BME280;10473;42.734;24.258;2023-02-11T08:56:10;93172.00;;;12.06;21.89
20628;BME280;10473;42.734;24.258;2023-02-11T08:58:38;93182.59;;;12.53;22.01
20628;BME280;10473;42.734;24.258;2023-02-11T09:01:08;93171.59;;;13.39;20.25
20628;BME280;10473;42.734;24.258;2023-02-11T09:03:38;93177.28;;;12.53;21.40
20628;BME280;10473;42.734;24.258;2023-02-11T09:06:07;93172.53;;;13.12;20.64
20628;BME280;10473;42.734;24.258;2023-02-11T09:08:35;93160.78;;;13.32;19.95
20628;BME280;10473;42.734;24.258;2023-02-11T09:11:03;93176.00;;;13.92;19.53
20628;BME280;10473;42.734;24.258;2023-02-11T09:13:32;93175.66;;;13.52;20.06
20628;BME280;10473;42.734;24.258;2023-02-11T09:16:01;93162.06;;;13.57;20.08
20628;BME280;10473;42.734;24.258;2023-02-11T09:18:29;93168.78;;;13.92;19.79
20628;BME280;10473;42.734;24.258;2023-02-11T09:21:03;93166.94;;;14.19;19.40
20628;BME280;10473;42.734;24.258;2023-02-11T09:23:31;93175.84;;;14.04;20.14
20628;BME280;10473;42.734;24.258;2023-02-11T09:25:59;93170.81;;;15.22;19.17
20628;BME280;10473;42.734;24.258;2023-02-11T09:28:31;93172.66;;;15.44;18.86
20628;BME280;10473;42.734;24.258;2023-02-11T09:31:04;93145.84;;;15.37;19.30
20628;BME280;10473;42.734;24.258;2023-02-11T09:33:31;93160.53;;;15.53;18.23
20628;BME280;10473;42.734;24.258;2023-02-11T09:36:00;93155.94;;;14.43;19.24
20628;BME280;10473;42.734;24.258;2023-02-11T09:38:29;93148.91;;;14.31;19.11
20628;BME280;10473;42.734;24.258;2023-02-11T09:40:57;93150.25;;;15.26;18.97
20628;BME280;10473;42.734;24.258;2023-02-11T09:43:32;93150.63;;;15.54;18.03
20628;BME280;10473;42.734;24.258;2023-02-11T09:46:04;93149.13;;;16.33;18.87
20628;BME280;10473;42.734;24.258;2023-02-11T09:48:38;93137.72;;;15.99;17.85
20628;BME280;10473;42.734;24.258;2023-02-11T09:51:15;93144.91;;;16.79;17.52
20628;BME280;10473;42.734;24.258;2023-02-11T09:53:49;93132.03;;;16.98;17.76
20628;BME280;10473;42.734;24.258;2023-02-11T09:56:19;93132.03;;;17.77;17.75
20628;BME280;10473;42.734;24.258;2023-02-11T09:58:47;93123.22;;;17.83;17.42
20628;BME280;10473;42.734;24.258;2023-02-11T10:01:23;93127.09;;;19.05;15.75
20628;BME280;10473;42.734;24.258;2023-02-11T10:04:02;93122.53;;;18.95;16.33
20628;BME280;10473;42.734;24.258;2023-02-11T10:06:42;93113.19;;;19.45;16.65
20628;BME280;10473;42.734;24.258;2023-02-11T10:09:26;93104.31;;;20.27;16.80
20628;BME280;10473;42.734;24.258;2023-02-11T10:12:02;93109.63;;;20.34;15.74
20628;BME280;10473;42.734;24.258;2023-02-11T10:14:58;93095.13;;;21.12;15.97
20628;BME280;10473;42.734;24.258;2023-02-11T10:17:38;93106.38;;;20.56;15.41
20628;BME280;10473;42.734;24.258;2023-02-11T10:20:22;93099.03;;;20.06;15.39
20628;BME280;10473;42.734;24.258;2023-02-11T10:22:54;93092.88;;;20.60;15.56
20628;BME280;10473;42.734;24.258;2023-02-11T10:25:32;93091.84;;;20.43;15.88
20628;BME280;10473;42.734;24.258;2023-02-11T10:28:10;93081.66;;;21.46;16.04
20628;BME280;10473;42.734;24.258;2023-02-11T10:30:41;93076.81;;;22.70;14.72
20628;BME280;10473;42.734;24.258;2023-02-11T10:33:15;93067.84;;;22.00;15.04
20628;BME280;10473;42.734;24.258;2023-02-11T10:35:46;93066.09;;;22.13;15.15
20628;BME280;10473;42.734;24.258;2023-02-11T10:38:14;93066.69;;;22.97;15.36
20628;BME280;10473;42.734;24.258;2023-02-11T10:40:43;93058.31;;;23.11;14.55
20628;BME280;10473;42.734;24.258;2023-02-11T10:43:14;93052.75;;;22.03;15.40
20628;BME280;10473;42.734;24.258;2023-02-11T10:45:45;93034.69;;;22.23;15.56
20628;BME280;10473;42.734;24.258;2023-02-11T10:48:40;93040.56;;;22.67;15.03
20628;BME280;10473;42.734;24.258;2023-02-11T10:51:16;93021.06;;;21.84;15.55
20628;BME280;10473;42.734;24.258;2023-02-11T10:53:44;93018.53;;;22.46;15.00
20628;BME280;10473;42.734;24.258;2023-02-11T10:56:21;93020.06;;;21.41;15.75
20628;BME280;10473;42.734;24.258;2023-02-11T10:58:55;93017.25;;;20.44;16.31
20628;BME280;10473;42.734;24.258;2023-02-11T11:01:37;93020.56;;;21.62;15.60
20628;BME280;10473;42.734;24.258;2023-02-11T11:04:06;93009.63;;;21.99;16.16
20628;BME280;10473;42.734;24.258;2023-02-11T11:06:48;93010.75;;;22.51;15.57
20628;BME280;10473;42.734;24.258;2023-02-11T11:09:26;93014.88;;;23.96;14.60
20628;BME280;10473;42.734;24.258;2023-02-11T11:11:57;93017.50;;;24.79;14.32
20628;BME280;10473;42.734;24.258;2023-02-11T11:14:25;93007.69;;;25.14;14.56
20628;BME280;10473;42.734;24.258;2023-02-11T11:16:54;93009.66;;;25.96;14.32
20628;BME280;10473;42.734;24.258;2023-02-11T11:19:23;93009.22;;;26.81;13.37
20628;BME280;10473;42.734;24.258;2023-02-11T11:21:52;93007.69;;;26.93;13.09
20628;BME280;10473;42.734;24.258;2023-02-11T11:24:22;92997.34;;;26.04;13.56
20628;BME280;10473;42.734;24.258;2023-02-11T11:26:58;93002.09;;;27.52;13.20
20628;BME280;10473;42.734;24.258;2023-02-11T11:29:31;92979.81;;;27.01;13.72
20628;BME280;10473;42.734;24.258;2023-02-11T11:32:03;92979.59;;;27.51;13.50
20628;BME280;10473;42.734;24.258;2023-02-11T11:34:35;92981.44;;;28.64;12.41
20628;BME280;10473;42.734;24.258;2023-02-11T11:37:10;92973.41;;;27.81;12.93
20628;BME280;10473;42.734;24.258;2023-02-11T11:39:38;92972.75;;;26.57;12.99
20628;BME280;10473;42.734;24.258;2023-02-11T11:42:24;92968.59;;;26.65;12.88
20628;BME280;10473;42.734;24.258;2023-02-11T11:44:57;92968.50;;;27.76;13.10
20628;BME280;10473;42.734;24.258;2023-02-11T11:47:31;92965.69;;;27.58;12.31
20628;BME280;10473;42.734;24.258;2023-02-11T11:50:24;92972.44;;;28.06;12.62
20628;BME280;10473;42.734;24.258;2023-02-11T11:52:57;92962.34;;;27.11;12.73
20628;BME280;10473;42.734;24.258;2023-02-11T11:55:31;92960.47;;;27.42;12.92
20628;BME280;10473;42.734;24.258;2023-02-11T11:58:03;92954.84;;;27.67;11.96
20628;BME280;10473;42.734;24.258;2023-02-11T12:00:35;92954.09;;;27.02;12.63
20628;BME280;10473;42.734;24.258;2023-02-11T12:03:43;92953.59;;;27.59;12.13
20628;BME280;10473;42.734;24.258;2023-02-11T12:06:25;92954.84;;;28.37;13.24
20628;BME280;10473;42.734;24.258;2023-02-11T12:09:06;92946.41;;;27.22;12.46
20628;BME280;10473;42.734;24.258;2023-02-11T12:12:02;92938.91;;;25.99;12.26
20628;BME280;10473;42.734;24.258;2023-02-11T12:14:40;92932.00;;;25.45;12.73
20628;BME280;10473;42.734;24.258;2023-02-11T12:17:17;92935.44;;;24.63;12.72
20628;BME280;10473;42.734;24.258;2023-02-11T12:20:00;92930.81;;;25.58;13.01
20628;BME280;10473;42.734;24.258;2023-02-11T12:22:42;92929.66;;;25.18;13.08
20628;BME280;10473;42.734;24.258;2023-02-11T12:25:23;92920.94;;;26.14;13.22
20628;BME280;10473;42.734;24.258;2023-02-11T12:28:02;92918.75;;;26.68;13.41
20628;BME280;10473;42.734;24.258;2023-02-11T12:30:51;92912.19;;;24.78;12.47
20628;BME280;10473;42.734;24.258;2023-02-11T12:33:31;92910.63;;;25.59;13.09
20628;BME280;10473;42.734;24.258;2023-02-11T12:36:07;92918.66;;;25.75;12.91
20628;BME280;10473;42.734;24.258;2023-02-11T12:38:55;92906.84;;;25.57;12.74
20628;BME280;10473;42.734;24.258;2023-02-11T12:41:42;92910.50;;;24.68;12.65
20628;BME280;10473;42.734;24.258;2023-02-11T12:44:38;92913.28;;;23.72;14.40
20628;BME280;10473;42.734;24.258;2023-02-11T12:47:19;92912.59;;;23.84;13.68
20628;BME280;10473;42.734;24.258;2023-02-11T12:50:12;92907.75;;;22.26;13.90
20628;BME280;10473;42.734;24.258;2023-02-11T12:52:58;92902.59;;;22.32;12.89
20628;BME280;10473;42.734;24.258;2023-02-11T12:55:34;92898.59;;;22.63;12.57
20628;BME280;10473;42.734;24.258;2023-02-11T12:58:03;92899.34;;;21.98;12.96
20628;BME280;10473;42.734;24.258;2023-02-11T13:00:40;92890.44;;;22.01;13.68
20628;BME280;10473;42.734;24.258;2023-02-11T13:03:16;92883.31;;;20.14;13.45
20628;BME280;10473;42.734;24.258;2023-02-11T13:05:48;92888.16;;;19.42;14.06
20628;BME280;10473;42.734;24.258;2023-02-11T13:08:20;92881.38;;;18.48;15.42
20628;BME280;10473;42.734;24.258;2023-02-11T13:10:53;92880.00;;;17.77;15.79
20628;BME280;10473;42.734;24.258;2023-02-11T13:13:24;92857.38;;;17.18;16.20
20628;BME280;10473;42.734;24.258;2023-02-11T13:15:55;92870.31;;;16.71;16.49
20628;BME280;10473;42.734;24.258;2023-02-11T13:18:42;92855.09;;;15.93;16.60
20628;BME280;10473;42.734;24.258;2023-02-11T13:21:45;92869.47;;;14.77;17.00
20628;BME280;10473;42.734;24.258;2023-02-11T13:24:21;92869.41;;;14.37;17.26
20628;BME280;10473;42.734;24.258;2023-02-11T13:26:56;92873.53;;;13.72;19.63
20628;BME280;10473;42.734;24.258;2023-02-11T13:29:32;92860.25;;;13.23;20.18
20628;BME280;10473;42.734;24.258;2023-02-11T13:32:06;92858.81;;;12.62;19.33
20628;BME280;10473;42.734;24.258;2023-02-11T13:34:57;92831.09;;;11.80;20.51